sensor_id;sensor_type;location;lat;lon;timestamp;pressure;altitude;pressure_sealevel;temperature;humidity
64064;BME280;50314;50.618;10.642;2023-01-28T00:00:27;97316.28;;;13.38;24.46
64064;BME280;50314;50.618;10.642;2023-01-28T00:02:53;97310.88;;;13.40;24.63
64064;BME280;50314;50.618;10.642;2023-01-28T00:05:18;97318.81;;;13.40;24.40
64064;BME280;50314;50.618;10.642;2023-01-28T00:07:43;97307.50;;;13.38;24.42
64064;BME280;50314;50.618;10.642;2023-01-28T00:10:09;97308.44;;;13.37;24.38
64064;BME280;50314;50.618;10.642;2023-01-28T00:12:35;97311.22;;;13.35;24.61
64064;BME280;50314;50.618;10.642;2023-01-28T00:15:01;97320.00;;;13.36;24.48
64064;BME280;50314;50.618;10.642;2023-01-28T00:17:26;97325.28;;;13.36;24.29
64064;BME280;50314;50.618;10.642;2023-01-28T00:19:51;97318.31;;;13.35;24.61
64064;BME280;50314;50.618;10.642;2023-01-28T00:22:17;97316.50;;;13.35;24.53
64064;BME280;50314;50.618;10.642;2023-01-28T00:24:42;97310.47;;;13.33;24.29
64064;BME280;50314;50.618;10.642;2023-01-28T00:27:08;97301.72;;;13.33;24.38
64064;BME280;50314;50.618;10.642;2023-01-28T00:29:34;97301.72;;;13.33;24.33
64064;BME280;50314;50.618;10.642;2023-01-28T00:32:00;97306.16;;;13.32;24.32
64064;BME280;50314;50.618;10.642;2023-01-28T00:34:25;97310.63;;;13.32;24.47
64064;BME280;50314;50.618;10.642;2023-01-28T00:36:51;97308.94;;;13.31;24.39
64064;BME280;50314;50.618;10.642;2023-01-28T00:39:23;97309.88;;;13.30;24.52
64064;BME280;50314;50.618;10.642;2023-01-28T00:41:52;97316.13;;;13.29;24.35
64064;BME280;50314;50.618;10.642;2023-01-28T00:44:19;97310.84;;;13.29;24.52
64064;BME280;50314;50.618;10.642;2023-01-28T00:46:45;97304.81;;;13.27;24.63
64064;BME280;50314;50.618;10.642;2023-01-28T00:49:10;97302.16;;;13.27;24.36
64064;BME280;50314;50.618;10.642;2023-01-28T00:51:36;97321.66;;;13.26;24.45
64064;BME280;50314;50.618;10.642;2023-01-28T00:54:02;97319.00;;;13.26;24.44
64064;BME280;50314;50.618;10.642;2023-01-28T00:56:27;97315.53;;;13.25;24.33
64064;BME280;50314;50.618;10.642;2023-01-28T00:58:53;97319.97;;;13.25;24.42
64064;BME280;50314;50.618;10.642;2023-01-28T01:01:20;97319.97;;;13.25;24.52
64064;BME280;50314;50.618;10.642;2023-01-28T01:03:46;97312.97;;;13.24;24.53
64064;BME280;50314;50.618;10.642;2023-01-28T01:06:15;97318.25;;;13.24;24.45
64064;BME280;50314;50.618;10.642;2023-01-28T01:08:40;97320.19;;;13.22;24.59
64064;BME280;50314;50.618;10.642;2023-01-28T01:11:11;97316.72;;;13.21;24.53
64064;BME280;50314;50.618;10.642;2023-01-28T01:13:37;97325.50;;;13.22;24.62
64064;BME280;50314;50.618;10.642;2023-01-28T01:16:10;97326.31;;;13.22;24.45
64064;BME280;50314;50.618;10.642;2023-01-28T01:18:37;97328.22;;;13.20;24.45
64064;BME280;50314;50.618;10.642;2023-01-28T01:21:11;97326.69;;;13.18;24.60
64064;BME280;50314;50.618;10.642;2023-01-28T01:23:37;97320.44;;;13.19;24.49
64064;BME280;50314;50.618;10.642;2023-01-28T01:26:04;97320.44;;;13.19;24.34
64064;BME280;50314;50.618;10.642;2023-01-28T01:28:30;97328.38;;;13.19;24.38
64064;BME280;50314;50.618;10.642;2023-01-28T01:31:04;97324.22;;;13.14;24.56
64064;BME280;50314;50.618;10.642;2023-01-28T01:33:30;97319.69;;;13.16;24.38
64064;BME280;50314;50.618;10.642;2023-01-28T01:35:56;97315.38;;;13.15;24.38
64064;BME280;50314;50.618;10.642;2023-01-28T01:38:22;97323.16;;;13.17;24.43
64064;BME280;50314;50.618;10.642;2023-01-28T01:40:47;97325.09;;;13.15;24.40
64064;BME280;50314;50.618;10.642;2023-01-28T01:43:21;97324.47;;;13.11;24.53
64064;BME280;50314;50.618;10.642;2023-01-28T01:45:58;97326.38;;;13.09;24.39
64064;BME280;50314;50.618;10.642;2023-01-28T01:48:31;97329.00;;;13.09;24.36
64064;BME280;50314;50.618;10.642;2023-01-28T01:51:01;97326.25;;;13.11;24.41
64064;BME280;50314;50.618;10.642;2023-01-28T01:53:29;97329.75;;;13.11;24.41
64064;BME280;50314;50.618;10.642;2023-01-28T01:55:59;97333.31;;;13.10;24.22
64064;BME280;50314;50.618;10.642;2023-01-28T01:58:30;97342.22;;;13.09;24.54
64064;BME280;50314;50.618;10.642;2023-01-28T02:00:58;97335.97;;;13.10;24.56
64064;BME280;50314;50.618;10.642;2023-01-28T02:03:49;97338.13;;;13.05;24.39
64064;BME280;50314;50.618;10.642;2023-01-28T02:06:17;97341.50;;;13.07;24.40
64064;BME280;50314;50.618;10.642;2023-01-28T02:08:44;97338.88;;;13.07;24.48
64064;BME280;50314;50.618;10.642;2023-01-28T02:11:10;97347.75;;;13.06;24.35
64064;BME280;50314;50.618;10.642;2023-01-28T02:13:42;97348.81;;;13.04;24.38
64064;BME280;50314;50.618;10.642;2023-01-28T02:16:09;97348.72;;;13.05;24.33
64064;BME280;50314;50.618;10.642;2023-01-28T02:18:36;97361.09;;;13.05;24.49
64064;BME280;50314;50.618;10.642;2023-01-28T02:23:59;97360.47;;;13.01;24.42
64064;BME280;50314;50.618;10.642;2023-01-28T02:29:07;97369.34;;;13.00;24.58
64064;BME280;50314;50.618;10.642;2023-01-28T02:31:43;97366.81;;;12.99;24.49
64064;BME280;50314;50.618;10.642;2023-01-28T02:34:17;97366.69;;;13.00;24.54
64064;BME280;50314;50.618;10.642;2023-01-28T02:39:15;97369.47;;;12.99;24.55
64064;BME280;50314;50.618;10.642;2023-01-28T02:41:49;97374.88;;;12.97;24.63
64064;BME280;50314;50.618;10.642;2023-01-28T02:44:16;97372.13;;;12.99;24.35
64064;BME280;50314;50.618;10.642;2023-01-28T02:46:42;97380.88;;;12.99;24.33
64064;BME280;50314;50.618;10.642;2023-01-28T02:59:51;97374.22;;;12.93;24.41
64064;BME280;50314;50.618;10.642;2023-01-28T03:02:24;97371.50;;;12.95;24.50
64064;BME280;50314;50.618;10.642;2023-01-28T03:07:40;97364.41;;;12.96;24.66
64064;BME280;50314;50.618;10.642;2023-01-28T03:10:08;97367.88;;;12.96;24.42
64064;BME280;50314;50.618;10.642;2023-01-28T03:12:39;97364.53;;;12.94;24.42
64064;BME280;50314;50.618;10.642;2023-01-28T03:15:45;97374.47;;;12.90;24.53
64064;BME280;50314;50.618;10.642;2023-01-28T03:19:03;97366.66;;;12.89;24.59
64064;BME280;50314;50.618;10.642;2023-01-28T03:21:47;97369.19;;;12.90;24.59
64064;BME280;50314;50.618;10.642;2023-01-28T03:24:41;97369.41;;;12.87;24.46
64064;BME280;50314;50.618;10.642;2023-01-28T03:27:44;97375.53;;;12.88;24.60
64064;BME280;50314;50.618;10.642;2023-01-28T03:33:35;97378.91;;;12.90;24.67
64064;BME280;50314;50.618;10.642;2023-01-28T03:36:19;97376.25;;;12.90;24.42
64064;BME280;50314;50.618;10.642;2023-01-28T03:39:03;97380.69;;;12.89;24.47
64064;BME280;50314;50.618;10.642;2023-01-28T03:41:28;97391.19;;;12.91;24.86
64064;BME280;50314;50.618;10.642;2023-01-28T03:43:54;97393.00;;;12.90;24.45
64064;BME280;50314;50.618;10.642;2023-01-28T03:46:20;97396.47;;;12.91;24.54
64064;BME280;50314;50.618;10.642;2023-01-28T03:48:46;97400.66;;;12.93;24.39
64064;BME280;50314;50.618;10.642;2023-01-28T03:51:12;97393.69;;;12.92;24.63
64064;BME280;50314;50.618;10.642;2023-01-28T03:53:38;97399.84;;;12.93;24.35
64064;BME280;50314;50.618;10.642;2023-01-28T03:56:05;97393.69;;;12.92;24.52
64064;BME280;50314;50.618;10.642;2023-01-28T03:58:30;97396.34;;;12.92;24.67
64064;BME280;50314;50.618;10.642;2023-01-28T04:01:25;97399.13;;;12.91;24.42
64064;BME280;50314;50.618;10.642;2023-01-28T04:03:50;97391.19;;;12.91;24.54
64064;BME280;50314;50.618;10.642;2023-01-28T04:06:16;97394.66;;;12.91;24.44
64064;BME280;50314;50.618;10.642;2023-01-28T04:08:41;97393.84;;;12.91;24.59
64064;BME280;50314;50.618;10.642;2023-01-28T04:11:12;97381.53;;;12.90;24.53
64064;BME280;50314;50.618;10.642;2023-01-28T04:13:41;97396.47;;;12.91;24.53
64064;BME280;50314;50.618;10.642;2023-01-28T04:16:07;97391.19;;;12.91;24.45
64064;BME280;50314;50.618;10.642;2023-01-28T04:18:33;97383.34;;;12.89;24.38
64064;BME280;50314;50.618;10.642;2023-01-28T04:20:59;97394.75;;;12.90;24.62
64064;BME280;50314;50.618;10.642;2023-01-28T04:23:24;97389.47;;;12.90;24.56
64064;BME280;50314;50.618;10.642;2023-01-28T04:25:50;97398.16;;;12.92;24.62
64064;BME280;50314;50.618;10.642;2023-01-28T04:28:16;97398.16;;;12.92;24.54
64064;BME280;50314;50.618;10.642;2023-01-28T04:30:41;97392.03;;;12.91;24.43
64064;BME280;50314;50.618;10.642;2023-01-28T04:33:07;97393.00;;;12.90;24.52
64064;BME280;50314;50.618;10.642;2023-01-28T04:35:32;97393.84;;;12.91;24.41
64064;BME280;50314;50.618;10.642;2023-01-28T04:37:58;97396.47;;;12.91;24.40
64064;BME280;50314;50.618;10.642;2023-01-28T04:40:23;97395.63;;;12.90;24.54
64064;BME280;50314;50.618;10.642;2023-01-28T04:42:53;97395.72;;;12.89;24.58
64064;BME280;50314;50.618;10.642;2023-01-28T04:45:18;97393.00;;;12.90;24.43
64064;BME280;50314;50.618;10.642;2023-01-28T04:47:44;97401.75;;;12.91;24.52
64064;BME280;50314;50.618;10.642;2023-01-28T04:50:09;97390.34;;;12.90;24.55
64064;BME280;50314;50.618;10.642;2023-01-28T04:52:35;97401.00;;;12.89;24.53
64064;BME280;50314;50.618;10.642;2023-01-28T04:55:00;97402.69;;;12.90;24.53
64064;BME280;50314;50.618;10.642;2023-01-28T04:57:27;97399.22;;;12.89;24.70
64064;BME280;50314;50.618;10.642;2023-01-28T04:59:53;97403.66;;;12.89;24.56
64064;BME280;50314;50.618;10.642;2023-01-28T05:02:18;97404.63;;;12.88;24.55
64064;BME280;50314;50.618;10.642;2023-01-28T05:04:44;97418.69;;;12.88;24.53
64064;BME280;50314;50.618;10.642;2023-01-28T05:07:09;97406.31;;;12.89;24.59
64064;BME280;50314;50.618;10.642;2023-01-28T05:09:35;97397.53;;;12.88;24.55
64064;BME280;50314;50.618;10.642;2023-01-28T05:12:01;97397.53;;;12.88;24.63
64064;BME280;50314;50.618;10.642;2023-01-28T05:14:27;97401.97;;;12.88;24.69
64064;BME280;50314;50.618;10.642;2023-01-28T05:16:52;97408.09;;;12.88;24.64
64064;BME280;50314;50.618;10.642;2023-01-28T05:19:17;97398.38;;;12.89;24.65
64064;BME280;50314;50.618;10.642;2023-01-28T05:21:43;97406.44;;;12.87;24.59
64064;BME280;50314;50.618;10.642;2023-01-28T05:24:08;97405.59;;;12.87;24.50
64064;BME280;50314;50.618;10.642;2023-01-28T05:26:34;97405.59;;;12.87;24.69
64064;BME280;50314;50.618;10.642;2023-01-28T05:28:59;97404.72;;;12.86;24.56
64064;BME280;50314;50.618;10.642;2023-01-28T05:31:25;97408.22;;;12.87;24.60
64064;BME280;50314;50.618;10.642;2023-01-28T05:33:50;97408.22;;;12.87;24.59
64064;BME280;50314;50.618;10.642;2023-01-28T05:36:17;97413.53;;;12.87;24.59
64064;BME280;50314;50.618;10.642;2023-01-28T05:38:43;97410.88;;;12.87;24.61
64064;BME280;50314;50.618;10.642;2023-01-28T05:41:08;97418.81;;;12.87;24.63
64064;BME280;50314;50.618;10.642;2023-01-28T05:43:34;97429.38;;;12.87;24.67
64064;BME280;50314;50.618;10.642;2023-01-28T05:45:59;97408.22;;;12.87;24.53
64064;BME280;50314;50.618;10.642;2023-01-28T05:48:24;97423.13;;;12.88;24.47
64064;BME280;50314;50.618;10.642;2023-01-28T05:50:50;97417.84;;;12.88;24.43
64064;BME280;50314;50.618;10.642;2023-01-28T05:53:15;97419.66;;;12.87;24.62
64064;BME280;50314;50.618;10.642;2023-01-28T05:55:41;97431.06;;;12.88;24.59
64064;BME280;50314;50.618;10.642;2023-01-28T05:58:06;97441.72;;;12.86;24.44
64064;BME280;50314;50.618;10.642;2023-01-28T06:00:32;97437.31;;;12.87;24.70
64064;BME280;50314;50.618;10.642;2023-01-28T06:02:57;97436.34;;;12.88;24.58
64064;BME280;50314;50.618;10.642;2023-01-28T06:05:23;97440.78;;;12.87;24.60
64064;BME280;50314;50.618;10.642;2023-01-28T06:07:48;97444.28;;;12.88;24.64
64064;BME280;50314;50.618;10.642;2023-01-28T06:10:14;97464.59;;;12.87;24.61
64064;BME280;50314;50.618;10.642;2023-01-28T06:12:42;97453.06;;;12.88;24.54
64064;BME280;50314;50.618;10.642;2023-01-28T06:15:08;97453.88;;;12.89;24.46
64064;BME280;50314;50.618;10.642;2023-01-28T06:17:34;97459.31;;;12.87;24.55
64064;BME280;50314;50.618;10.642;2023-01-28T06:19:59;97455.81;;;12.87;24.54
64064;BME280;50314;50.618;10.642;2023-01-28T06:22:25;97469.88;;;12.87;24.52
64064;BME280;50314;50.618;10.642;2023-01-28T06:24:50;97462.88;;;12.86;24.61
64064;BME280;50314;50.618;10.642;2023-01-28T06:27:15;97468.16;;;12.86;24.60
64064;BME280;50314;50.618;10.642;2023-01-28T06:29:41;97469.97;;;12.86;24.54
64064;BME280;50314;50.618;10.642;2023-01-28T06:32:06;97463.00;;;12.85;24.50
64064;BME280;50314;50.618;10.642;2023-01-28T06:34:32;97457.72;;;12.85;24.61
64064;BME280;50314;50.618;10.642;2023-01-28T06:36:57;97460.34;;;12.85;24.45
64064;BME280;50314;50.618;10.642;2023-01-28T06:39:23;97470.94;;;12.85;24.52
64064;BME280;50314;50.618;10.642;2023-01-28T06:41:51;97475.38;;;12.84;24.40
64064;BME280;50314;50.618;10.642;2023-01-28T06:44:16;97470.09;;;12.84;24.64
64064;BME280;50314;50.618;10.642;2023-01-28T06:46:42;97469.25;;;12.84;24.55
64064;BME280;50314;50.618;10.642;2023-01-28T06:49:07;97479.72;;;12.85;24.57
64064;BME280;50314;50.618;10.642;2023-01-28T06:51:33;97482.34;;;12.85;24.64
64064;BME280;50314;50.618;10.642;2023-01-28T06:53:58;97476.22;;;12.85;24.52
64064;BME280;50314;50.618;10.642;2023-01-28T06:56:24;97483.31;;;12.84;24.55
64064;BME280;50314;50.618;10.642;2023-01-28T06:58:50;97484.25;;;12.83;24.50
64064;BME280;50314;50.618;10.642;2023-01-28T07:01:15;97486.88;;;12.83;24.58
64064;BME280;50314;50.618;10.642;2023-01-28T07:03:40;97491.34;;;12.83;24.52
64064;BME280;50314;50.618;10.642;2023-01-28T07:06:06;97489.53;;;12.83;24.49
64064;BME280;50314;50.618;10.642;2023-01-28T07:08:31;97496.63;;;12.83;24.47
64064;BME280;50314;50.618;10.642;2023-01-28T07:10:58;97489.53;;;12.83;24.54
64064;BME280;50314;50.618;10.642;2023-01-28T07:13:23;97496.63;;;12.83;24.47
64064;BME280;50314;50.618;10.642;2023-01-28T07:15:49;97498.34;;;12.84;24.58
64064;BME280;50314;50.618;10.642;2023-01-28T07:18:15;97504.56;;;12.83;24.55
64064;BME280;50314;50.618;10.642;2023-01-28T07:20:40;97503.63;;;12.84;24.53
64064;BME280;50314;50.618;10.642;2023-01-28T07:23:06;97502.75;;;12.83;24.58
64064;BME280;50314;50.618;10.642;2023-01-28T07:25:31;97508.03;;;12.83;24.66
64064;BME280;50314;50.618;10.642;2023-01-28T07:27:57;97502.88;;;12.82;24.61
64064;BME280;50314;50.618;10.642;2023-01-28T07:30:22;97495.91;;;12.81;24.54
64064;BME280;50314;50.618;10.642;2023-01-28T07:32:55;97492.50;;;12.79;24.65
64064;BME280;50314;50.618;10.642;2023-01-28T07:35:21;97492.41;;;12.80;24.63
64064;BME280;50314;50.618;10.642;2023-01-28T07:37:58;97496.13;;;12.78;24.60
64064;BME280;50314;50.618;10.642;2023-01-28T07:40:25;97483.63;;;12.80;24.64
64064;BME280;50314;50.618;10.642;2023-01-28T07:42:51;97493.34;;;12.79;24.45
64064;BME280;50314;50.618;10.642;2023-01-28T07:45:18;97501.19;;;12.81;24.59
64064;BME280;50314;50.618;10.642;2023-01-28T07:47:43;97511.75;;;12.81;24.66
64064;BME280;50314;50.618;10.642;2023-01-28T07:50:10;97511.75;;;12.81;24.51
64064;BME280;50314;50.618;10.642;2023-01-28T07:52:36;97512.59;;;12.81;24.58
64064;BME280;50314;50.618;10.642;2023-01-28T07:55:13;97513.56;;;12.80;24.51
64064;BME280;50314;50.618;10.642;2023-01-28T07:57:51;97519.91;;;12.78;24.65
64064;BME280;50314;50.618;10.642;2023-01-28T08:00:18;97524.84;;;12.82;24.47
64064;BME280;50314;50.618;10.642;2023-01-28T08:02:44;97531.09;;;12.81;24.36
64064;BME280;50314;50.618;10.642;2023-01-28T08:05:14;97530.28;;;12.81;24.57
64064;BME280;50314;50.618;10.642;2023-01-28T08:07:40;97529.31;;;12.82;24.54
64064;BME280;50314;50.618;10.642;2023-01-28T08:10:05;97531.00;;;12.83;24.48
64064;BME280;50314;50.618;10.642;2023-01-28T08:12:31;97529.31;;;12.82;24.65
64064;BME280;50314;50.618;10.642;2023-01-28T08:14:56;97546.00;;;12.82;24.53
64064;BME280;50314;50.618;10.642;2023-01-28T08:17:22;97541.56;;;12.83;24.55
64064;BME280;50314;50.618;10.642;2023-01-28T08:19:47;97545.91;;;12.84;24.70
64064;BME280;50314;50.618;10.642;2023-01-28T08:22:12;97539.66;;;12.85;24.50
64064;BME280;50314;50.618;10.642;2023-01-28T08:24:38;97546.63;;;12.86;24.52
64064;BME280;50314;50.618;10.642;2023-01-28T08:27:03;97537.78;;;12.87;24.29
64064;BME280;50314;50.618;10.642;2023-01-28T08:29:29;97543.91;;;12.87;24.47
64064;BME280;50314;50.618;10.642;2023-01-28T08:31:54;97545.59;;;12.88;24.55
64064;BME280;50314;50.618;10.642;2023-01-28T08:34:19;97540.28;;;12.88;24.51
64064;BME280;50314;50.618;10.642;2023-01-28T08:36:45;97535.84;;;12.89;24.42
64064;BME280;50314;50.618;10.642;2023-01-28T08:39:10;97554.28;;;12.90;24.44
64064;BME280;50314;50.618;10.642;2023-01-28T08:41:36;97552.56;;;12.89;24.68
64064;BME280;50314;50.618;10.642;2023-01-28T08:44:01;97558.47;;;12.93;24.37
64064;BME280;50314;50.618;10.642;2023-01-28T08:46:27;97542.59;;;12.93;24.51
64064;BME280;50314;50.618;10.642;2023-01-28T08:48:53;97538.16;;;12.93;24.39
64064;BME280;50314;50.618;10.642;2023-01-28T08:51:18;97546.84;;;12.96;24.48
64064;BME280;50314;50.618;10.642;2023-01-28T08:53:43;97532.66;;;12.97;24.44
64064;BME280;50314;50.618;10.642;2023-01-28T08:56:09;97545.88;;;12.97;24.65
64064;BME280;50314;50.618;10.642;2023-01-28T08:58:34;97539.75;;;12.96;24.36
64064;BME280;50314;50.618;10.642;2023-01-28T09:01:04;97543.34;;;12.95;24.53
64064;BME280;50314;50.618;10.642;2023-01-28T09:03:33;97551.16;;;12.97;24.50
64064;BME280;50314;50.618;10.642;2023-01-28T09:06:01;97546.75;;;12.97;24.44
64064;BME280;50314;50.618;10.642;2023-01-28T09:08:27;97555.53;;;12.98;24.46
64064;BME280;50314;50.618;10.642;2023-01-28T09:10:56;97551.09;;;12.98;24.76
64064;BME280;50314;50.618;10.642;2023-01-28T09:13:21;97553.50;;;13.01;24.82
64064;BME280;50314;50.618;10.642;2023-01-28T09:15:47;97554.22;;;13.03;24.65
64064;BME280;50314;50.618;10.642;2023-01-28T09:18:13;97557.72;;;13.04;24.95
64064;BME280;50314;50.618;10.642;2023-01-28T09:20:38;97559.31;;;13.06;24.89
64064;BME280;50314;50.618;10.642;2023-01-28T09:23:05;97562.69;;;13.08;24.82
64064;BME280;50314;50.618;10.642;2023-01-28T09:25:30;97559.84;;;13.11;25.00
64064;BME280;50314;50.618;10.642;2023-01-28T09:27:57;97563.31;;;13.12;24.93
64064;BME280;50314;50.618;10.642;2023-01-28T09:30:22;97564.16;;;13.12;24.82
64064;BME280;50314;50.618;10.642;2023-01-28T09:32:49;97572.84;;;13.14;24.95
64064;BME280;50314;50.618;10.642;2023-01-28T09:35:16;97570.97;;;13.16;24.90
64064;BME280;50314;50.618;10.642;2023-01-28T09:37:42;97570.88;;;13.18;24.95
64064;BME280;50314;50.618;10.642;2023-01-28T09:40:23;97561.34;;;13.15;24.88
64064;BME280;50314;50.618;10.642;2023-01-28T09:43:04;97571.81;;;13.17;24.85
64064;BME280;50314;50.618;10.642;2023-01-28T09:45:39;97567.25;;;13.19;24.98
64064;BME280;50314;50.618;10.642;2023-01-28T09:48:13;97575.06;;;13.21;24.99
64064;BME280;50314;50.618;10.642;2023-01-28T09:50:41;97578.06;;;13.16;25.00
64064;BME280;50314;50.618;10.642;2023-01-28T09:53:18;97586.63;;;13.20;24.82
64064;BME280;50314;50.618;10.642;2023-01-28T09:55:54;97590.00;;;13.22;24.95
64064;BME280;50314;50.618;10.642;2023-01-28T09:58:20;97586.19;;;13.26;24.83
64064;BME280;50314;50.618;10.642;2023-01-28T10:00:59;97595.09;;;13.25;24.78
64064;BME280;50314;50.618;10.642;2023-01-28T10:03:53;97597.72;;;13.25;25.00
64064;BME280;50314;50.618;10.642;2023-01-28T10:06:29;97604.50;;;13.29;25.04
64064;BME280;50314;50.618;10.642;2023-01-28T10:17:06;97616.50;;;13.58;25.37
64064;BME280;50314;50.618;10.642;2023-01-28T10:19:43;97616.78;;;13.67;25.39
64064;BME280;50314;50.618;10.642;2023-01-28T10:22:18;97614.44;;;13.75;25.54
64064;BME280;50314;50.618;10.642;2023-01-28T10:24:59;97608.47;;;13.84;25.46
64064;BME280;50314;50.618;10.642;2023-01-28T10:27:31;97619.66;;;14.00;25.53
64064;BME280;50314;50.618;10.642;2023-01-28T10:29:58;97622.34;;;14.12;26.04
64064;BME280;50314;50.618;10.642;2023-01-28T10:32:37;97620.56;;;14.36;25.34
64064;BME280;50314;50.618;10.642;2023-01-28T10:35:07;97599.19;;;14.62;25.49
64064;BME280;50314;50.618;10.642;2023-01-28T10:37:34;97608.19;;;14.83;25.91
64064;BME280;50314;50.618;10.642;2023-01-28T10:40:02;97611.31;;;14.99;25.15
64064;BME280;50314;50.618;10.642;2023-01-28T10:42:33;97611.94;;;15.14;25.10
64064;BME280;50314;50.618;10.642;2023-01-28T10:45:12;97608.47;;;15.25;25.47
64064;BME280;50314;50.618;10.642;2023-01-28T10:50:23;97601.97;;;15.52;25.65
64064;BME280;50314;50.618;10.642;2023-01-28T10:55:19;97608.19;;;15.73;25.33
64064;BME280;50314;50.618;10.642;2023-01-28T10:57:45;97611.09;;;15.81;25.51
64064;BME280;50314;50.618;10.642;2023-01-28T11:00:35;97610.72;;;15.86;25.29
64064;BME280;50314;50.618;10.642;2023-01-28T11:03:01;97606.22;;;15.97;25.13
64064;BME280;50314;50.618;10.642;2023-01-28T11:05:28;97602.69;;;16.08;25.25
64064;BME280;50314;50.618;10.642;2023-01-28T11:10:36;97606.41;;;16.49;25.29
64064;BME280;50314;50.618;10.642;2023-01-28T11:13:04;97607.25;;;16.71;25.23
64064;BME280;50314;50.618;10.642;2023-01-28T11:15:31;97607.25;;;16.91;25.33
64064;BME280;50314;50.618;10.642;2023-01-28T11:18:02;97614.66;;;17.09;25.15
64064;BME280;50314;50.618;10.642;2023-01-28T11:20:31;97595.94;;;17.20;24.85
64064;BME280;50314;50.618;10.642;2023-01-28T11:22:59;97602.03;;;17.42;24.68
64064;BME280;50314;50.618;10.642;2023-01-28T11:25:35;97605.59;;;17.52;24.36
64064;BME280;50314;50.618;10.642;2023-01-28T11:28:07;97606.91;;;17.67;24.16
64064;BME280;50314;50.618;10.642;2023-01-28T11:30:40;97600.22;;;17.82;24.09
64064;BME280;50314;50.618;10.642;2023-01-28T11:33:17;97599.84;;;17.97;23.92
64064;BME280;50314;50.618;10.642;2023-01-28T11:36:13;97602.53;;;18.16;23.81
64064;BME280;50314;50.618;10.642;2023-01-28T11:39:17;97599.31;;;18.42;23.87
64064;BME280;50314;50.618;10.642;2023-01-28T11:41:45;97586.06;;;18.69;24.00
64064;BME280;50314;50.618;10.642;2023-01-28T11:44:25;97594.22;;;18.87;23.46
64064;BME280;50314;50.618;10.642;2023-01-28T11:49:54;97581.34;;;19.20;22.97
64064;BME280;50314;50.618;10.642;2023-01-28T11:58:20;97597.06;;;19.60;22.46
64064;BME280;50314;50.618;10.642;2023-01-28T12:01:09;97594.88;;;19.74;22.37
64064;BME280;50314;50.618;10.642;2023-01-28T12:09:10;97597.47;;;20.11;22.34
64064;BME280;50314;50.618;10.642;2023-01-28T12:19:51;97579.94;;;20.52;22.03
64064;BME280;50314;50.618;10.642;2023-01-28T12:25:10;97569.03;;;20.63;22.08
64064;BME280;50314;50.618;10.642;2023-01-28T12:27:50;97569.09;;;20.72;21.64
64064;BME280;50314;50.618;10.642;2023-01-28T12:36:37;97581.63;;;20.71;21.06
64064;BME280;50314;50.618;10.642;2023-01-28T12:42:06;97570.63;;;20.74;20.90
64064;BME280;50314;50.618;10.642;2023-01-28T12:44:37;97564.97;;;20.77;20.75
64064;BME280;50314;50.618;10.642;2023-01-28T12:47:11;97561.97;;;20.80;20.74
64064;BME280;50314;50.618;10.642;2023-01-28T12:49:43;97561.78;;;20.82;20.68
64064;BME280;50314;50.618;10.642;2023-01-28T12:52:22;97571.97;;;20.78;20.44
64064;BME280;50314;50.618;10.642;2023-01-28T12:54:56;97561.78;;;20.82;20.79
64064;BME280;50314;50.618;10.642;2023-01-28T12:57:26;97564.66;;;20.80;20.27
64064;BME280;50314;50.618;10.642;2023-01-28T13:00:05;97561.28;;;20.78;20.20
64064;BME280;50314;50.618;10.642;2023-01-28T13:02:43;97558.22;;;20.73;20.49
64064;BME280;50314;50.618;10.642;2023-01-28T13:05:20;97565.88;;;20.68;20.23
64064;BME280;50314;50.618;10.642;2023-01-28T13:08:18;97573.41;;;20.64;20.21
64064;BME280;50314;50.618;10.642;2023-01-28T13:10:46;97570.09;;;20.71;20.71
64064;BME280;50314;50.618;10.642;2023-01-28T13:13:33;97570.72;;;20.64;20.26
64064;BME280;50314;50.618;10.642;2023-01-28T13:15:57;97563.75;;;20.72;20.47
64064;BME280;50314;50.618;10.642;2023-01-28T13:18:33;97570.75;;;20.73;20.24
64064;BME280;50314;50.618;10.642;2023-01-28T13:24:05;97586.38;;;20.77;20.11
64064;BME280;50314;50.618;10.642;2023-01-28T13:26:51;97587.22;;;20.78;20.12
64064;BME280;50314;50.618;10.642;2023-01-28T13:31:47;97592.69;;;20.94;20.61
64064;BME280;50314;50.618;10.642;2023-01-28T13:34:36;97588.88;;;21.05;20.71
64064;BME280;50314;50.618;10.642;2023-01-28T13:37:12;97596.56;;;21.26;20.48
64064;BME280;50314;50.618;10.642;2023-01-28T13:39:46;97590.59;;;21.40;20.33
64064;BME280;50314;50.618;10.642;2023-01-28T13:42:27;97595.38;;;21.54;20.51
64064;BME280;50314;50.618;10.642;2023-01-28T13:44:54;97611.03;;;21.75;20.46
64064;BME280;50314;50.618;10.642;2023-01-28T13:47:38;97608.25;;;21.85;20.60
64064;BME280;50314;50.618;10.642;2023-01-28T13:50:12;97612.78;;;22.01;20.38
64064;BME280;50314;50.618;10.642;2023-01-28T13:52:54;97605.44;;;22.11;20.24
64064;BME280;50314;50.618;10.642;2023-01-28T13:55:25;97618.38;;;22.24;19.87
64064;BME280;50314;50.618;10.642;2023-01-28T14:00:57;97614.41;;;22.36;19.67
64064;BME280;50314;50.618;10.642;2023-01-28T14:06:34;97622.81;;;22.49;20.09
64064;BME280;50314;50.618;10.642;2023-01-28T14:14:55;97613.06;;;22.65;19.75
64064;BME280;50314;50.618;10.642;2023-01-28T14:19:56;97623.47;;;22.76;19.83
64064;BME280;50314;50.618;10.642;2023-01-28T14:22:22;97629.50;;;22.78;19.98
64064;BME280;50314;50.618;10.642;2023-01-28T14:24:48;97625.78;;;22.79;19.84
64064;BME280;50314;50.618;10.642;2023-01-28T14:27:22;97624.31;;;22.77;19.70
64064;BME280;50314;50.618;10.642;2023-01-28T14:30:07;97613.91;;;22.73;19.86
64064;BME280;50314;50.618;10.642;2023-01-28T14:32:48;97620.09;;;22.74;19.44
64064;BME280;50314;50.618;10.642;2023-01-28T14:35:18;97613.06;;;22.73;19.33
64064;BME280;50314;50.618;10.642;2023-01-28T14:37:44;97616.59;;;22.73;19.78